SAINT LEGER EN YVELINES (78) - L

Date : 21/04/2018

Place Nom Licence Catégorie Club Temps CN à J-60 Points Différence Nouveau CN
1 CHALOPIN Catherine 3674 D65 2105BF 0:30:03 3710 4478 +768 3803
2 DEVILLE Nelly 2401 D70 5402GE 0:31:56 3963 4214 +251 3892
3 RICHARD Nicole 14245 D70 0207HF 0:35:16 3788 3816 +28 3758
4 ANNE Brigitte 1672 D65 0111AR 0:35:19 4022 3810 -212 4014
5 DUBROCA Monique 633 D70 3308NA 0:35:37 3996 3778 -218 4090
6 DIEUDONNE Madeleine 1380 D70 7808IF 0:39:28 3554 3410 -144 3446
7 ENARD Monique 2664 D65 2101BF 0:40:36 3202 3314 +112 3179
8 OUDIN M-Reine 7574 D65 6804GE 0:42:00 2968 3204 +236 3154
9 LECOYER Annick 2885 D65 0207HF 0:43:07 2978 3121 +143 3011
10 MOULIERE M-Bernadette 2888 D75 0207HF 0:44:26 2813 3028 +215 2855
11 THIEBAULT Monique 5033 D70 3318NA 0:49:25 3559 2723 -836 3514
12 THEVENON Catherine 29294 D65 1705NA 0:49:56 2935 2695 -240 2835
13 CALANDOT Michelle 2927 D65 1403NM 0:53:35 2762 2511 -251 2605
14 ABISSE Gisele 701 D75 2508BF 0:54:23 1841 2474 +633 2541
15 RUAUD Agnes 739 D65 2508BF 0:54:58 2398 2448 +50 2337
16 POGU Paulette 4671 D65 5402GE 0:57:54 2516 2324 -192 2531
17 JEANPIERRE M-Therese 3302 D75 8809GE 1:06:18 2343 2030 -313 2737
18 LUDEWIG-JAMES Carol 15894 D80 5907HF 1:12:14 2009 1863 -146 1684
19 LAGOIDET Colette 3619 D80 4012NA 1:17:41 1645 1732 +87 1693
20 DODIN Genevieve 4392 D70 8809GE 1:20:45 1994 1666 -328 1809
21 FEHLEN Jacqueline 20808 D75 5407GE 1:46:24 1333 1265 -68 1332
ROBERT Martine 1087 D65 7004BF pm 3314 0 3546
DENIS Martine 12377 D70 9404IF pm 2409 0 2383